Pagina principală
METAR-TAF:

METAR-TAF

Aeroporturi :

Normanton, Australia

Latitudine: 17-41-06S, longitudine: 141-04-12E, elevație: 22 m

Observații meteo curente

Raportul a fost făcut în urmă cu 1 oră și 14 de minute, la 14:00 UTC
Vânt 11 kt de la Sud
Temperatură 19°C
Umiditate 26%
Presiune 1016 hPa
Vizibilitate de 10 km sau mai mult

METAR: YNTN 251400Z AUTO 17011KT 9999 // NCD 19/M01 Q1016

Ora: 01:14 (15:14 UTC)


TAF: lipsă

Observații și prognoze meteo pentru peste 4.000 de aeroporturi (rapoarte METAR și TAF).

Stațiile disponibile sunt reprezentate pe hartă prin puncte galbene și roșii.

Țineți indicatorul mouse-ului pe punctul dorit pentru a vedea denumirea stației.

Apoi, faceți clic pentru a vedea observațiile și prognozele meteorologice.

Pentru a schimba harta: Pentru mărire, faceți clic pe butoanele verzi cu cruce neagră; pentru micșorare, pe butonul verde cu o liniuță; pentru hărți învecinate, pe săgețile verzi.


METAR-TAF: